Time;durP1;ratioP1;P1;durP2;ratioP2;P2;SDS_P1;SDS_P2;PMS_P1;PMS_P2;Temp;Humidity;BMP_temperature;BMP_pressure;BME280_temperature;BME280_humidity;BME280_pressure;Samples;Min_cycle;Max_cycle;Signal;HPM_P1;HPM_P2
2021/03/18 00:01:20;;;;;;;13.23;7.35;;;2.90;99.90;;;;;;5093978;28;20537;-68
2021/03/18 00:03:47;;;;;;;13.95;7.35;;;2.80;99.90;;;;;;5093630;28;20024;-67
2021/03/18 00:06:13;;;;;;;14.55;7.82;;;2.70;99.90;;;;;;5093652;28;20458;-67
2021/03/18 00:08:40;;;;;;;13.38;7.70;;;2.70;99.90;;;;;;5093753;28;20028;-68
2021/03/18 00:11:09;;;;;;;13.20;7.53;;;2.80;99.90;;;;;;5075391;28;20445;-68
2021/03/18 00:13:36;;;;;;;13.63;7.45;;;2.60;99.90;;;;;;5093540;28;20024;-67
2021/03/18 00:16:02;;;;;;;15.38;7.85;;;2.60;99.90;;;;;;5093715;28;20391;-67
2021/03/18 00:18:31;;;;;;;17.40;8.18;;;2.60;99.90;;;;;;5093560;28;20023;-67
2021/03/18 00:21:00;;;;;;;12.88;7.25;;;2.60;99.90;;;;;;5093517;28;20036;-68
2021/03/18 00:23:26;;;;;;;15.07;7.57;;;2.50;99.90;;;;;;5093396;28;20058;-67
2021/03/18 00:25:51;;;;;;;14.10;7.88;;;2.50;99.90;;;;;;5093649;28;20086;-67
2021/03/18 00:28:17;;;;;;;13.65;8.02;;;2.60;99.90;;;;;;5093700;28;20039;-68
2021/03/18 00:30:42;;;;;;;12.45;7.40;;;2.60;99.90;;;;;;5093335;28;20169;-67
2021/03/18 00:33:08;;;;;;;15.10;7.97;;;2.50;99.90;;;;;;5093128;28;20434;-67
2021/03/18 00:35:34;;;;;;;13.57;7.45;;;2.50;99.90;;;;;;5093391;28;20028;-67
2021/03/18 00:37:59;;;;;;;15.48;7.13;;;2.60;99.90;;;;;;5093128;28;20532;-68
2021/03/18 00:40:29;;;;;;;14.57;7.90;;;2.60;99.90;;;;;;5093148;28;20023;-67
2021/03/18 00:42:56;;;;;;;13.57;8.25;;;2.50;99.90;;;;;;5092872;28;20536;-67
2021/03/18 00:45:24;;;;;;;12.98;7.45;;;2.60;99.90;;;;;;5093103;28;20039;-68
2021/03/18 00:47:50;;;;;;;10.93;7.43;;;2.70;99.90;;;;;;5093013;28;20471;-68
2021/03/18 00:50:37;;;;;;;13.85;7.05;;;2.70;99.90;;;;;;5092899;28;20546;-68
2021/03/18 00:53:03;;;;;;;13.50;8.23;;;2.70;99.90;;;;;;5092759;28;20034;-67
2021/03/18 00:55:29;;;;;;;12.15;7.40;;;2.70;99.90;;;;;;5074704;28;20069;-67
2021/03/18 00:57:55;;;;;;;13.82;7.28;;;2.70;99.90;;;;;;5092065;28;20024;-68
2021/03/18 01:00:30;;;;;;;12.98;7.10;;;2.60;99.90;;;;;;5092962;28;20028;-67
2021/03/18 01:02:57;;;;;;;12.02;7.28;;;2.60;99.90;;;;;;5092547;28;20035;-67
2021/03/18 01:05:31;;;;;;;12.32;7.90;;;2.60;99.90;;;;;;5092442;28;20039;-68
2021/03/18 01:07:58;;;;;;;12.27;6.80;;;2.50;99.90;;;;;;5074656;28;20442;-67
2021/03/18 01:10:26;;;;;;;13.13;6.82;;;2.50;99.90;;;;;;5092378;28;20020;-67
2021/03/18 01:12:52;;;;;;;12.38;7.80;;;2.50;99.90;;;;;;5092264;28;20486;-67
2021/03/18 01:15:18;;;;;;;12.15;7.00;;;2.60;99.90;;;;;;5092517;28;20032;-67
2021/03/18 01:17:44;;;;;;;11.20;6.72;;;2.60;99.90;;;;;;5092433;28;20478;-67
2021/03/18 01:20:13;;;;;;;12.68;8.15;;;2.50;99.90;;;;;;5092315;28;20141;-67
2021/03/18 01:22:39;;;;;;;13.82;7.22;;;2.20;99.90;;;;;;5092156;28;20031;-67
2021/03/18 01:25:06;;;;;;;15.05;7.78;;;2.00;99.90;;;;;;5092066;28;20060;-68
2021/03/18 01:27:31;;;;;;;15.98;8.07;;;1.90;99.90;;;;;;5092386;28;20397;-68
2021/03/18 01:29:57;;;;;;;12.52;7.40;;;1.80;99.90;;;;;;5092055;28;20115;-69
2021/03/18 01:32:23;;;;;;;13.23;7.15;;;1.80;99.90;;;;;;5091916;28;20027;-69
2021/03/18 01:34:48;;;;;;;15.25;8.07;;;1.80;99.90;;;;;;5091976;28;20069;-68
2021/03/18 01:37:14;;;;;;;12.98;7.47;;;1.80;99.90;;;;;;5092120;28;20020;-69
2021/03/18 01:39:39;;;;;;;12.70;7.63;;;1.70;99.90;;;;;;5091996;28;20035;-69
2021/03/18 01:42:06;;;;;;;12.70;7.13;;;1.90;99.90;;;;;;5091628;28;20028;-68
2021/03/18 01:44:31;;;;;;;13.32;7.07;;;2.00;99.90;;;;;;5091809;28;20118;-70
2021/03/18 01:46:57;;;;;;;11.45;6.93;;;2.00;99.90;;;;;;5091915;28;20118;-68
2021/03/18 01:49:22;;;;;;;12.95;7.10;;;2.00;99.90;;;;;;5091823;28;20433;-69
2021/03/18 01:51:48;;;;;;;13.75;7.15;;;1.90;99.90;;;;;;5091604;28;20099;-69
2021/03/18 01:54:14;;;;;;;12.57;7.75;;;1.90;99.90;;;;;;5091644;28;20027;-69
2021/03/18 01:56:40;;;;;;;13.43;7.35;;;1.90;99.90;;;;;;5091650;28;20046;-70
2021/03/18 01:59:05;;;;;;;13.27;8.02;;;1.90;99.90;;;;;;5091723;28;20024;-69
2021/03/18 02:01:31;;;;;;;12.57;7.10;;;1.90;99.90;;;;;;5091597;28;20115;-68
2021/03/18 02:03:57;;;;;;;11.45;6.75;;;1.90;99.90;;;;;;5091246;28;20035;-68
2021/03/18 02:06:23;;;;;;;12.57;7.18;;;1.70;99.90;;;;;;5091368;28;20341;-69
2021/03/18 02:08:49;;;;;;;14.73;7.32;;;1.70;99.90;;;;;;5073236;28;20024;-70
2021/03/18 02:11:14;;;;;;;15.68;7.72;;;1.60;99.90;;;;;;5091636;28;20479;-69
2021/03/18 02:13:40;;;;;;;12.35;7.43;;;1.40;99.90;;;;;;5091168;28;20387;-69
2021/03/18 02:16:09;;;;;;;12.68;6.97;;;1.30;99.90;;;;;;5091302;28;20031;-69
2021/03/18 02:18:50;;;;;;;10.75;6.72;;;1.20;99.90;;;;;;5091266;28;20020;-69
2021/03/18 02:21:37;;;;;;;13.90;7.45;;;1.10;99.90;;;;;;5091300;28;20105;-70
2021/03/18 02:24:45;;;;;;;15.93;8.35;;;1.00;99.90;;;;;;5091203;28;20482;-70
2021/03/18 02:27:42;;;;;;;19.70;10.13;;;1.00;99.90;;;;;;5085504;28;20450;-69
2021/03/18 02:30:33;;;;;;;17.88;9.43;;;1.20;99.90;;;;;;5091403;28;20413;-69
2021/03/18 02:33:16;;;;;;;17.33;8.77;;;1.30;99.90;;;;;;5090948;28;20258;-70
2021/03/18 02:35:50;;;;;;;14.50;7.55;;;1.30;99.90;;;;;;5091126;28;20025;-68
2021/03/18 02:38:27;;;;;;;18.17;8.35;;;1.20;99.90;;;;;;5091243;28;20031;-69
2021/03/18 02:40:59;;;;;;;26.20;10.90;;;1.20;99.90;;;;;;5091178;28;20039;-70
2021/03/18 02:43:28;;;;;;;22.50;10.57;;;1.30;99.90;;;;;;5091153;28;20024;-69
2021/03/18 02:45:58;;;;;;;16.25;8.75;;;1.30;99.90;;;;;;5090925;28;20028;-70
2021/03/18 02:48:31;;;;;;;18.38;9.75;;;1.40;99.90;;;;;;5090993;28;20111;-69
2021/03/18 02:50:58;;;;;;;20.45;11.35;;;1.40;99.90;;;;;;5087966;28;20047;-69
2021/03/18 02:53:27;;;;;;;23.08;11.60;;;1.50;99.90;;;;;;5070563;28;20099;-69
2021/03/18 02:55:55;;;;;;;20.65;10.32;;;1.60;99.90;;;;;;5070479;28;20339;-69
2021/03/18 02:58:23;;;;;;;17.60;9.27;;;1.70;99.90;;;;;;5070588;28;20031;-69
2021/03/18 03:00:51;;;;;;;17.80;8.73;;;1.70;99.90;;;;;;5070579;28;20039;-67
2021/03/18 03:03:18;;;;;;;17.08;8.82;;;1.70;99.90;;;;;;5070460;28;20025;-69
2021/03/18 03:05:47;;;;;;;16.08;9.48;;;1.70;99.90;;;;;;5070523;28;20024;-70
2021/03/18 03:08:14;;;;;;;15.98;8.68;;;1.70;99.90;;;;;;5070624;28;20033;-68
2021/03/18 03:10:40;;;;;;;14.15;8.02;;;1.70;99.90;;;;;;5052548;28;20029;-70
2021/03/18 03:13:06;;;;;;;19.35;10.68;;;1.70;99.90;;;;;;5070229;28;20506;-69
2021/03/18 03:15:32;;;;;;;18.27;10.23;;;1.80;99.90;;;;;;5087141;28;20062;-70
2021/03/18 03:18:01;;;;;;;17.67;8.95;;;1.80;99.90;;;;;;5090187;28;20012;-69
2021/03/18 03:20:29;;;;;;;17.02;10.02;;;1.60;99.90;;;;;;5091423;28;20016;-70
2021/03/18 03:22:56;;;;;;;17.60;9.32;;;1.60;99.90;;;;;;5094162;28;20149;-69
2021/03/18 03:25:23;;;;;;;21.08;9.77;;;1.60;99.90;;;;;;5094100;28;20069;-69
2021/03/18 03:27:49;;;;;;;18.25;10.10;;;1.60;99.90;;;;;;5091297;28;20032;-70
2021/03/18 03:30:16;;;;;;;19.98;10.02;;;1.50;99.90;;;;;;5091192;28;20036;-69
2021/03/18 03:32:43;;;;;;;19.67;11.07;;;1.40;99.90;;;;;;5092077;28;20103;-69
2021/03/18 03:35:09;;;;;;;17.67;9.68;;;1.40;99.90;;;;;;5082289;28;20040;-70
2021/03/18 03:37:35;;;;;;;17.88;9.70;;;1.40;99.90;;;;;;5084861;28;20423;-69
2021/03/18 03:40:04;;;;;;;18.88;10.43;;;1.40;99.90;;;;;;5082881;28;20095;-69
2021/03/18 03:42:30;;;;;;;19.10;10.32;;;1.40;99.90;;;;;;5091179;28;20028;-69
2021/03/18 03:44:55;;;;;;;19.13;10.25;;;1.50;99.90;;;;;;5091848;28;20059;-70
2021/03/18 03:47:21;;;;;;;19.20;10.48;;;1.50;99.90;;;;;;5066635;28;20128;-70
2021/03/18 03:49:47;;;;;;;24.70;11.55;;;1.50;99.90;;;;;;5064464;28;20390;-69
2021/03/18 03:52:26;;;;;;;19.95;10.63;;;1.50;99.90;;;;;;5088474;28;20024;-70
2021/03/18 03:55:01;;;;;;;21.58;11.02;;;1.40;99.90;;;;;;5093850;28;20019;-70
2021/03/18 03:57:54;;;;;;;21.92;11.50;;;1.30;99.90;;;;;;5094041;28;20032;-69
2021/03/18 04:00:20;;;;;;;20.25;10.48;;;1.20;99.90;;;;;;5086445;28;20032;-69
2021/03/18 04:02:47;;;;;;;24.35;12.07;;;0.90;99.90;;;;;;5075572;28;20026;-68
2021/03/18 04:05:14;;;;;;;19.73;11.25;;;0.80;99.90;;;;;;5086534;28;20028;-69
2021/03/18 04:07:41;;;;;;;19.90;11.23;;;0.70;99.90;;;;;;5093154;28;20481;-69
2021/03/18 04:10:08;;;;;;;22.17;13.23;;;0.50;99.90;;;;;;5095204;28;20385;-69
2021/03/18 04:12:37;;;;;;;21.75;11.80;;;0.50;99.90;;;;;;5103872;28;20024;-69
2021/03/18 04:15:09;;;;;;;21.98;11.70;;;0.50;99.90;;;;;;5096400;28;20527;-69
2021/03/18 04:17:39;;;;;;;25.55;13.05;;;0.50;99.90;;;;;;5112957;28;20023;-70
2021/03/18 04:20:07;;;;;;;;;;;0.40;99.90;;;;;;5113299;28;20312;-69
2021/03/18 04:22:33;;;;;;;20.17;11.65;;;0.30;99.90;;;;;;5110159;28;19914;-69
2021/03/18 04:25:00;;;;;;;23.30;11.75;;;0.20;99.90;;;;;;5105646;28;20094;-69
2021/03/18 04:27:27;;;;;;;21.92;10.93;;;0.10;99.90;;;;;;5110589;28;20008;-70
2021/03/18 04:29:54;;;;;;;21.77;12.23;;;0.10;99.90;;;;;;5101622;28;20027;-69
2021/03/18 04:32:21;;;;;;;20.23;11.38;;;0.10;99.90;;;;;;5111348;28;20030;-69
2021/03/18 04:34:49;;;;;;;22.67;11.90;;;0.10;99.90;;;;;;5112082;28;20032;-69
2021/03/18 04:37:14;;;;;;;21.98;12.32;;;0.10;99.90;;;;;;5102716;28;20547;-69
2021/03/18 04:39:41;;;;;;;23.38;12.15;;;0.10;99.90;;;;;;5104114;28;20024;-69
2021/03/18 04:42:10;;;;;;;26.27;13.40;;;0.10;99.90;;;;;;5102481;28;20020;-69
2021/03/18 04:44:36;;;;;;;24.27;12.60;;;0.20;99.90;;;;;;5112336;28;20015;-69
2021/03/18 04:47:03;;;;;;;23.10;12.57;;;0.30;99.90;;;;;;5099283;28;20149;-70
2021/03/18 04:49:29;;;;;;;26.67;13.73;;;0.40;99.90;;;;;;5086772;28;20034;-69
2021/03/18 04:51:55;;;;;;;25.20;13.43;;;0.50;99.90;;;;;;5112166;28;20098;-69
2021/03/18 04:54:21;;;;;;;25.13;13.20;;;0.60;99.90;;;;;;5098343;28;20142;-68
2021/03/18 04:56:48;;;;;;;25.10;14.23;;;0.60;99.90;;;;;;5112269;28;20069;-69
2021/03/18 04:59:15;;;;;;;27.40;14.07;;;0.70;99.90;;;;;;5100140;28;20020;-69
2021/03/18 05:01:52;;;;;;;30.50;15.75;;;0.70;99.90;;;;;;5094237;28;20030;-68
2021/03/18 05:04:19;;;;;;;29.75;17.90;;;0.80;99.90;;;;;;5102255;28;20474;-69
2021/03/18 05:06:54;;;;;;;29.42;15.00;;;0.80;99.90;;;;;;5112329;28;20097;-70
2021/03/18 05:09:21;;;;;;;28.05;15.70;;;0.80;99.90;;;;;;5113002;28;20042;-69
2021/03/18 05:11:47;;;;;;;25.00;14.80;;;0.70;99.90;;;;;;5094576;28;20546;-69
2021/03/18 05:14:14;;;;;;;26.90;14.13;;;0.80;99.90;;;;;;5094683;28;20031;-70
2021/03/18 05:16:40;;;;;;;30.15;15.98;;;0.90;99.90;;;;;;5112846;28;20496;-67
2021/03/18 05:19:11;;;;;;;25.63;14.15;;;0.80;99.90;;;;;;5112922;28;20503;-68
2021/03/18 05:21:38;;;;;;;26.15;13.30;;;0.90;99.90;;;;;;5112897;28;20363;-68
2021/03/18 05:24:06;;;;;;;26.20;13.98;;;0.90;99.90;;;;;;5112604;28;20492;-67
2021/03/18 05:26:32;;;;;;;26.95;14.15;;;0.90;99.90;;;;;;5094721;28;20424;-67
2021/03/18 05:28:57;;;;;;;26.27;14.98;;;1.00;99.90;;;;;;5112652;28;20110;-69
2021/03/18 05:31:23;;;;;;;24.63;13.45;;;1.00;99.90;;;;;;5112581;28;20054;-69
2021/03/18 05:33:51;;;;;;;29.50;15.65;;;1.00;99.90;;;;;;5112400;28;20044;-69
2021/03/18 05:36:18;;;;;;;26.05;15.07;;;1.10;99.90;;;;;;5112437;28;20050;-68
2021/03/18 05:38:44;;;;;;;24.90;13.77;;;1.20;99.90;;;;;;5112390;28;20027;-74
2021/03/18 05:41:10;;;;;;;26.73;13.45;;;1.20;99.90;;;;;;5112389;28;20546;-70
2021/03/18 05:43:35;;;;;;;27.73;14.10;;;1.30;99.90;;;;;;5111728;28;20023;-69
2021/03/18 05:46:02;;;;;;;26.77;15.02;;;1.20;99.90;;;;;;5112136;28;20516;-69
2021/03/18 05:48:29;;;;;;;27.75;15.60;;;1.20;99.90;;;;;;5112304;28;20016;-69
2021/03/18 05:50:56;;;;;;;26.88;14.65;;;1.20;99.90;;;;;;5112111;28;20067;-68
2021/03/18 05:53:22;;;;;;;24.63;13.80;;;1.30;99.90;;;;;;5075821;28;20032;-68
2021/03/18 05:55:51;;;;;;;29.23;14.75;;;1.40;99.90;;;;;;5091131;28;20064;-68
2021/03/18 05:58:20;;;;;;;28.10;14.65;;;1.70;99.90;;;;;;5095845;28;20023;-67
2021/03/18 06:00:48;;;;;;;25.98;15.65;;;1.70;99.90;;;;;;5104086;28;20074;-67
2021/03/18 06:03:14;;;;;;;26.35;13.80;;;1.70;99.90;;;;;;5092689;28;20663;-68
2021/03/18 06:05:40;;;;;;;25.95;13.32;;;1.80;99.90;;;;;;5110908;28;20024;-69
2021/03/18 06:08:08;;;;;;;23.65;12.98;;;1.80;99.90;;;;;;5111347;28;20027;-69
2021/03/18 06:10:34;;;;;;;24.27;13.63;;;1.80;99.90;;;;;;5097573;28;20024;-70
2021/03/18 06:13:00;;;;;;;26.60;13.80;;;1.80;99.90;;;;;;5110876;28;20024;-69
2021/03/18 06:15:26;;;;;;;26.65;14.80;;;1.70;99.90;;;;;;5110949;28;20077;-68
2021/03/18 06:17:53;;;;;;;39.28;22.55;;;1.50;99.90;;;;;;5111197;28;20091;-68
2021/03/18 06:20:28;;;;;;;34.65;20.67;;;1.50;99.90;;;;;;5111725;28;20539;-68
2021/03/18 06:22:54;;;;;;;38.28;20.70;;;1.40;99.90;;;;;;5111504;28;20034;-68
2021/03/18 06:25:34;;;;;;;28.60;16.25;;;1.20;99.90;;;;;;5111522;28;20023;-69
2021/03/18 06:28:29;;;;;;;28.73;16.05;;;1.20;99.90;;;;;;5111659;28;20427;-69
2021/03/18 06:31:07;;;;;;;27.27;14.55;;;1.10;99.90;;;;;;5111433;28;20023;-69
2021/03/18 06:33:44;;;;;;;30.80;17.23;;;1.10;99.90;;;;;;5111381;28;20370;-68
2021/03/18 06:36:30;;;;;;;39.15;20.60;;;1.10;99.90;;;;;;5111397;28;20145;-68
2021/03/18 06:39:09;;;;;;;32.05;18.40;;;1.10;99.90;;;;;;5111342;28;20103;-69
2021/03/18 06:41:43;;;;;;;31.40;18.92;;;1.10;99.90;;;;;;5111762;28;20031;-68
2021/03/18 06:44:19;;;;;;;30.27;17.95;;;1.20;99.90;;;;;;5111313;28;20030;-69
2021/03/18 06:46:45;;;;;;;31.38;17.10;;;1.40;99.90;;;;;;5111262;28;20020;-68
2021/03/18 06:49:12;;;;;;;31.83;17.40;;;1.60;99.90;;;;;;5093009;28;20023;-69
2021/03/18 06:51:37;;;;;;;35.13;18.55;;;1.80;99.90;;;;;;5093052;28;20058;-68
2021/03/18 06:54:17;;;;;;;33.72;16.85;;;1.90;99.90;;;;;;5111165;28;20052;-69
2021/03/18 06:56:59;;;;;;;34.53;16.23;;;2.00;99.90;;;;;;5110859;28;20024;-69
2021/03/18 06:59:30;;;;;;;33.65;15.82;;;2.10;99.90;;;;;;5111310;28;20537;-69
2021/03/18 07:02:19;;;;;;;28.17;15.52;;;2.30;99.90;;;;;;5111033;28;20313;-69
2021/03/18 07:04:47;;;;;;;30.92;15.65;;;2.60;99.90;;;;;;5093144;28;20149;-69
2021/03/18 07:07:15;;;;;;;27.77;15.73;;;2.70;99.90;;;;;;5111430;28;20389;-69
2021/03/18 07:09:43;;;;;;;27.08;14.70;;;2.90;99.90;;;;;;5111032;28;20034;-69
2021/03/18 07:12:14;;;;;;;27.38;14.20;;;3.00;99.90;;;;;;5110750;28;20012;-69
2021/03/18 07:14:48;;;;;;;25.30;14.00;;;3.20;99.90;;;;;;5111049;28;20089;-69
2021/03/18 07:17:36;;;;;;;22.98;13.50;;;3.30;99.90;;;;;;5111118;28;20030;-69
2021/03/18 07:20:28;;;;;;;22.90;13.60;;;3.20;99.90;;;;;;5111099;28;20115;-69
2021/03/18 07:22:56;;;;;;;24.60;13.20;;;3.10;99.90;;;;;;5094950;28;20505;-68
2021/03/18 07:25:25;;;;;;;28.60;14.88;;;3.10;99.90;;;;;;5093240;28;20036;-68
2021/03/18 07:27:59;;;;;;;29.30;14.17;;;3.00;99.90;;;;;;5083927;28;20016;-68
2021/03/18 07:30:28;;;;;;;22.17;13.10;;;3.00;99.90;;;;;;5107017;28;20810;-69
2021/03/18 07:32:55;;;;;;;28.20;14.00;;;2.90;99.90;;;;;;5091221;28;20024;-69
2021/03/18 07:35:21;;;;;;;24.05;13.95;;;2.90;99.90;;;;;;5110959;28;20106;-69
2021/03/18 07:37:48;;;;;;;28.27;14.40;;;2.80;99.90;;;;;;5110534;28;20024;-69
2021/03/18 07:40:14;;;;;;;26.15;13.57;;;2.80;99.90;;;;;;5110805;28;20030;-69
2021/03/18 07:42:39;;;;;;;27.77;14.45;;;2.80;99.90;;;;;;5110544;28;20028;-69
2021/03/18 07:45:06;;;;;;;21.40;13.93;;;2.90;99.90;;;;;;5110329;28;20028;-68
2021/03/18 07:47:34;;;;;;;26.20;14.65;;;2.90;99.90;;;;;;5110810;28;20485;-69
2021/03/18 07:50:01;;;;;;;24.63;13.88;;;3.10;99.90;;;;;;5110845;28;20031;-69
2021/03/18 07:52:28;;;;;;;28.48;13.73;;;3.20;99.90;;;;;;5110515;28;20016;-70
2021/03/18 07:54:56;;;;;;;24.23;13.57;;;3.40;99.90;;;;;;5110584;28;20027;-69
2021/03/18 07:57:23;;;;;;;22.67;13.25;;;3.60;99.90;;;;;;5110601;28;20018;-68
2021/03/18 07:59:48;;;;;;;24.85;13.90;;;3.80;99.90;;;;;;5110708;28;20023;-70
2021/03/18 08:02:24;;;;;;;23.55;13.40;;;4.00;99.90;;;;;;5110251;28;20523;-70
2021/03/18 08:04:52;;;;;;;22.15;12.98;;;4.40;99.90;;;;;;5110538;28;20401;-68
2021/03/18 08:07:42;;;;;;;24.08;13.73;;;4.80;99.90;;;;;;5113045;28;20027;-69
2021/03/18 08:10:31;;;;;;;24.35;12.73;;;5.10;99.90;;;;;;5114286;28;20546;-69
2021/03/18 08:13:06;;;;;;;28.75;14.05;;;5.30;99.90;;;;;;5113235;28;20073;-69
2021/03/18 08:15:43;;;;;;;22.85;12.85;;;5.60;99.90;;;;;;5095946;28;20217;-70
2021/03/18 08:18:15;;;;;;;22.85;12.98;;;5.70;99.90;;;;;;5114325;28;20479;-70
2021/03/18 08:20:41;;;;;;;26.90;13.30;;;5.70;99.90;;;;;;5114159;28;20485;-69
2021/03/18 08:23:29;;;;;;;25.13;14.65;;;5.70;99.90;;;;;;5095754;28;20019;-69
2021/03/18 08:26:00;;;;;;;22.80;13.40;;;5.90;99.90;;;;;;5095610;28;20024;-70
2021/03/18 08:28:43;;;;;;;19.02;11.80;;;5.90;99.90;;;;;;5114033;28;20034;-69
2021/03/18 08:31:18;;;;;;;19.60;11.13;;;5.90;99.90;;;;;;5095560;28;20028;-69
2021/03/18 08:33:49;;;;;;;18.30;12.50;;;5.90;99.60;;;;;;5113658;28;20023;-70
2021/03/18 08:36:24;;;;;;;20.02;11.35;;;5.80;99.90;;;;;;5095435;28;20016;-69
2021/03/18 08:39:00;;;;;;;17.83;10.02;;;6.10;99.90;;;;;;5113780;28;20028;-68
2021/03/18 08:41:30;;;;;;;15.40;9.25;;;6.20;99.90;;;;;;5113692;28;20553;-70
2021/03/18 08:44:15;;;;;;;;;;;6.30;98.70;;;;;;5113866;28;20032;-69
2021/03/18 08:46:48;;;;;;;11.13;6.32;;;6.40;97.80;;;;;;5113144;28;19951;-68
2021/03/18 08:49:29;;;;;;;11.98;6.18;;;6.40;95.30;;;;;;5095051;28;20034;-67
2021/03/18 08:51:57;;;;;;;13.68;7.65;;;6.40;96.40;;;;;;5087266;28;20012;-68
2021/03/18 08:54:41;;;;;;;12.95;7.32;;;6.40;96.10;;;;;;5098134;28;20011;-68
2021/03/18 08:57:13;;;;;;;16.40;10.75;;;6.40;95.30;;;;;;5088716;28;20027;-69
2021/03/18 08:59:45;;;;;;;22.77;17.92;;;6.40;95.00;;;;;;5098970;28;20123;-69
2021/03/18 09:02:13;;;;;;;24.00;18.63;;;6.30;95.00;;;;;;5075489;28;20034;-69
2021/03/18 09:04:46;;;;;;;11.68;6.55;;;6.20;95.90;;;;;;5105181;28;20043;-70
2021/03/18 09:07:15;;;;;;;11.23;6.70;;;6.20;95.40;;;;;;5103749;28;20042;-68
2021/03/18 09:09:41;;;;;;;14.63;9.13;;;6.20;96.30;;;;;;5083914;28;20020;-69
2021/03/18 09:12:07;;;;;;;14.68;7.50;;;6.10;94.60;;;;;;5087566;28;20022;-70
2021/03/18 09:14:34;;;;;;;13.77;6.40;;;6.10;94.80;;;;;;5075779;28;20038;-68
2021/03/18 09:17:12;;;;;;;13.73;5.57;;;6.10;95.20;;;;;;5089330;28;20066;-69
2021/03/18 09:19:42;;;;;;;10.70;6.03;;;6.20;94.00;;;;;;5108483;28;20019;-69
2021/03/18 09:22:08;;;;;;;11.57;6.10;;;6.20;93.80;;;;;;5111858;28;20111;-69
2021/03/18 09:24:44;;;;;;;10.82;5.53;;;6.30;94.20;;;;;;5106484;28;20103;-69
2021/03/18 09:27:12;;;;;;;9.95;4.85;;;6.40;92.90;;;;;;5064456;28;20020;-70
2021/03/18 09:29:39;;;;;;;12.77;6.30;;;6.20;93.30;;;;;;5103280;28;20498;-68
2021/03/18 09:32:11;;;;;;;11.25;6.43;;;6.30;93.90;;;;;;5101335;28;20056;-69
2021/03/18 09:34:39;;;;;;;11.90;5.63;;;6.50;93.80;;;;;;5109300;28;20099;-69
2021/03/18 09:37:05;;;;;;;10.18;5.75;;;6.80;91.70;;;;;;5111312;28;20022;-70
2021/03/18 09:39:32;;;;;;;10.50;5.97;;;7.00;92.50;;;;;;5092552;28;20379;-69
2021/03/18 09:42:02;;;;;;;10.35;5.50;;;7.10;90.00;;;;;;5087698;28;20044;-68
2021/03/18 09:44:29;;;;;;;8.80;4.88;;;7.20;90.20;;;;;;5084383;28;20024;-70
2021/03/18 09:46:58;;;;;;;9.65;5.32;;;7.30;92.10;;;;;;5084281;28;20042;-70
2021/03/18 09:49:41;;;;;;;9.93;5.20;;;7.60;90.10;;;;;;5089874;28;20060;-69
2021/03/18 09:52:13;;;;;;;9.15;4.70;;;7.70;90.60;;;;;;5081947;28;20025;-70
2021/03/18 09:54:39;;;;;;;12.50;6.32;;;7.90;87.60;;;;;;5085751;28;20016;-69
2021/03/18 09:57:07;;;;;;;7.15;3.95;;;8.20;87.50;;;;;;5091994;28;20056;-69
2021/03/18 09:59:34;;;;;;;7.95;4.10;;;7.90;85.20;;;;;;5064081;28;20032;-69
2021/03/18 10:01:59;;;;;;;10.35;4.72;;;7.40;88.20;;;;;;5084983;28;20516;-70
2021/03/18 10:04:26;;;;;;;11.00;6.03;;;7.00;91.20;;;;;;5081944;28;20111;-66
2021/03/18 10:06:57;;;;;;;13.07;6.00;;;6.50;93.80;;;;;;5105121;28;20098;-69
2021/03/18 10:09:32;;;;;;;9.90;5.30;;;6.30;94.60;;;;;;5110912;28;20599;-69
2021/03/18 10:12:06;;;;;;;12.38;6.75;;;5.90;95.30;;;;;;5105991;28;20024;-69
2021/03/18 10:14:34;;;;;;;10.02;5.60;;;5.80;96.50;;;;;;5099497;28;20022;-68
2021/03/18 10:17:01;;;;;;;8.50;4.65;;;5.70;96.10;;;;;;5089141;28;20031;-69
2021/03/18 10:19:30;;;;;;;10.02;5.10;;;5.70;96.50;;;;;;5089726;28;20024;-69
2021/03/18 10:21:58;;;;;;;10.07;5.43;;;5.60;97.30;;;;;;5086049;28;20613;-69
2021/03/18 10:24:24;;;;;;;10.13;5.68;;;5.60;97.90;;;;;;5078071;28;20115;-69
2021/03/18 10:26:49;;;;;;;9.52;4.93;;;5.50;98.10;;;;;;5083640;28;20142;-70
2021/03/18 10:29:15;;;;;;;11.77;6.32;;;5.60;97.20;;;;;;5062042;28;20029;-69
2021/03/18 10:31:41;;;;;;;10.88;5.95;;;5.50;96.80;;;;;;5086241;28;20023;-68
2021/03/18 10:34:26;;;;;;;13.82;7.53;;;5.50;97.20;;;;;;5087422;28;20020;-67
2021/03/18 10:36:52;;;;;;;8.85;4.57;;;5.60;97.60;;;;;;5085829;28;20020;-67
2021/03/18 10:39:21;;;;;;;11.40;6.03;;;5.60;97.30;;;;;;5084329;28;20023;-67
2021/03/18 10:41:55;;;;;;;7.73;4.33;;;5.60;96.80;;;;;;5065303;28;20017;-69
2021/03/18 10:44:32;;;;;;;8.52;4.10;;;5.70;95.70;;;;;;5108307;28;20265;-67
2021/03/18 10:47:22;;;;;;;10.15;5.60;;;5.80;94.90;;;;;;5086168;28;20031;-68
2021/03/18 10:49:59;;;;;;;20.27;11.45;;;5.90;94.90;;;;;;5102004;28;20497;-68
2021/03/18 10:52:24;;;;;;;8.15;2.92;;;6.00;95.00;;;;;;5109774;28;20024;-67
2021/03/18 10:54:54;;;;;;;19.23;9.02;;;6.20;94.00;;;;;;5110408;28;20385;-68
2021/03/18 10:57:20;;;;;;;9.32;4.22;;;6.50;93.80;;;;;;5089010;28;20020;-67
2021/03/18 10:59:56;;;;;;;13.93;7.05;;;6.80;92.60;;;;;;5109642;28;20036;-68
2021/03/18 11:02:28;;;;;;;8.45;4.68;;;7.20;91.60;;;;;;5084687;28;20103;-69
2021/03/18 11:04:56;;;;;;;9.70;4.68;;;7.40;91.10;;;;;;5100598;28;20095;-67
2021/03/18 11:07:21;;;;;;;9.70;4.63;;;7.40;90.50;;;;;;5103311;28;20119;-68
2021/03/18 11:10:07;;;;;;;10.98;5.60;;;7.60;91.40;;;;;;5108599;28;20102;-67
2021/03/18 11:12:33;;;;;;;13.23;7.38;;;7.90;89.10;;;;;;5109725;28;20043;-67
2021/03/18 11:14:58;;;;;;;8.68;4.25;;;8.00;87.20;;;;;;5109162;28;20024;-68
2021/03/18 11:17:28;;;;;;;11.45;5.35;;;8.10;85.90;;;;;;5104759;28;20089;-67
2021/03/18 11:20:16;;;;;;;7.38;3.65;;;8.20;87.60;;;;;;5084605;28;20023;-68
2021/03/18 11:22:42;;;;;;;9.13;4.70;;;8.40;86.90;;;;;;5109168;28;20034;-66
2021/03/18 11:25:10;;;;;;;9.05;5.10;;;8.60;87.90;;;;;;5110002;28;20019;-67
2021/03/18 11:27:37;;;;;;;10.10;4.65;;;8.70;90.60;;;;;;5109935;28;20084;-70
2021/03/18 11:30:06;;;;;;;8.55;4.82;;;9.00;86.00;;;;;;5107373;28;20049;-66
2021/03/18 11:32:32;;;;;;;9.23;4.53;;;9.20;85.90;;;;;;5102237;28;20020;-67
2021/03/18 11:35:00;;;;;;;8.70;4.00;;;9.40;81.80;;;;;;5109360;28;20019;-67
2021/03/18 11:37:27;;;;;;;10.00;4.78;;;9.30;82.30;;;;;;5106171;28;20389;-66
2021/03/18 11:39:52;;;;;;;8.52;4.57;;;9.50;85.90;;;;;;5109937;28;20020;-67
2021/03/18 11:42:18;;;;;;;8.93;3.88;;;9.40;77.10;;;;;;5110203;28;20032;-67
2021/03/18 11:44:44;;;;;;;8.18;4.70;;;9.30;70.20;;;;;;5108376;28;20050;-67
2021/03/18 11:47:12;;;;;;;9.02;4.35;;;9.10;79.10;;;;;;5108019;28;20448;-67
2021/03/18 11:49:40;;;;;;;9.13;4.03;;;9.30;83.40;;;;;;5113365;28;20031;-66
2021/03/18 11:52:07;;;;;;;7.78;3.88;;;9.50;79.60;;;;;;5094429;28;20032;-68
2021/03/18 11:54:34;;;;;;;7.72;3.95;;;9.80;78.70;;;;;;5113633;28;20379;-67
2021/03/18 11:57:00;;;;;;;7.13;3.80;;;10.00;76.00;;;;;;5110210;28;20378;-68
2021/03/18 11:59:25;;;;;;;12.80;8.38;;;10.50;78.00;;;;;;5105827;28;20013;-67
2021/03/18 12:01:52;;;;;;;7.85;3.70;;;10.80;70.70;;;;;;5101636;28;20478;-68
2021/03/18 12:04:17;;;;;;;6.57;3.25;;;10.60;68.80;;;;;;5110372;28;20080;-67
2021/03/18 12:06:43;;;;;;;5.70;3.05;;;10.20;60.30;;;;;;5110655;28;20024;-66
2021/03/18 12:09:09;;;;;;;9.02;3.90;;;9.50;70.00;;;;;;5114266;28;20031;-67
2021/03/18 12:11:35;;;;;;;7.00;3.58;;;8.70;79.10;;;;;;5112427;28;20024;-67
2021/03/18 12:14:00;;;;;;;7.60;3.58;;;8.00;79.90;;;;;;5114135;28;20169;-66
2021/03/18 12:16:26;;;;;;;7.38;3.30;;;7.50;83.40;;;;;;5114063;28;20024;-66
2021/03/18 12:18:52;;;;;;;8.38;4.35;;;7.30;82.10;;;;;;5114491;28;20019;-67
2021/03/18 12:21:17;;;;;;;8.93;4.57;;;7.20;86.00;;;;;;5114267;28;20110;-66
2021/03/18 12:23:43;;;;;;;6.45;3.10;;;7.00;86.80;;;;;;5113779;28;20023;-68
2021/03/18 12:26:09;;;;;;;6.25;2.90;;;6.90;87.50;;;;;;5113980;28;20027;-66
2021/03/18 12:28:34;;;;;;;7.78;3.42;;;6.90;88.20;;;;;;5114019;28;20036;-66
2021/03/18 12:31:00;;;;;;;7.22;3.20;;;7.00;87.60;;;;;;5111426;28;20404;-67
2021/03/18 12:33:25;;;;;;;6.25;3.63;;;7.10;85.90;;;;;;5075840;28;20091;-68
2021/03/18 12:35:52;;;;;;;8.10;3.90;;;7.90;88.60;;;;;;5073214;28;20103;-67
2021/03/18 12:38:21;;;;;;;8.35;3.63;;;9.40;84.50;;;;;;5073304;28;20531;-66
2021/03/18 12:40:49;;;;;;;6.60;2.90;;;10.80;78.30;;;;;;5073195;28;20523;-66
2021/03/18 12:43:14;;;;;;;5.18;2.67;;;11.50;68.60;;;;;;5073003;28;20107;-67
2021/03/18 12:45:42;;;;;;;6.32;2.88;;;11.30;63.80;;;;;;5054903;28;20064;-68
2021/03/18 12:48:07;;;;;;;6.47;3.63;;;10.40;67.40;;;;;;5072959;28;20078;-66
2021/03/18 12:50:33;;;;;;;7.72;4.00;;;10.00;80.50;;;;;;5072764;28;20033;-69
2021/03/18 12:52:59;;;;;;;8.52;4.70;;;9.60;90.10;;;;;;5071532;28;20027;-69
2021/03/18 12:55:25;;;;;;;8.55;3.80;;;9.70;91.10;;;;;;5092060;28;20024;-69
2021/03/18 12:57:52;;;;;;;5.93;2.83;;;10.40;90.30;;;;;;5074824;28;20020;-69